sensor_id;sensor_type;location;lat;lon;timestamp;pressure;altitude;pressure_sealevel;temperature;humidity
84841;BME280;75088;53.114;18.040;2024-02-26T00:00:45;100316.05;;;2.75;80.09
84841;BME280;75088;53.114;18.040;2024-02-26T00:02:13;100316.56;;;2.75;80.24
84841;BME280;75088;53.114;18.040;2024-02-26T00:03:20;100319.89;;;2.74;80.25
84841;BME280;75088;53.114;18.040;2024-02-26T00:04:27;100316.56;;;2.73;80.03
84841;BME280;75088;53.114;18.040;2024-02-26T00:05:35;100316.17;;;2.70;79.78
84841;BME280;75088;53.114;18.040;2024-02-26T00:06:44;100318.95;;;2.68;80.06
84841;BME280;75088;53.114;18.040;2024-02-26T00:07:51;100317.16;;;2.66;79.91
84841;BME280;75088;53.114;18.040;2024-02-26T00:08:58;100322.23;;;2.65;79.96
84841;BME280;75088;53.114;18.040;2024-02-26T00:10:08;100320.11;;;2.63;79.96
84841;BME280;75088;53.114;18.040;2024-02-26T00:11:15;100323.40;;;2.61;80.03
84841;BME280;75088;53.114;18.040;2024-02-26T00:12:22;100326.89;;;2.60;80.06
84841;BME280;75088;53.114;18.040;2024-02-26T00:13:30;100325.82;;;2.59;79.93
84841;BME280;75088;53.114;18.040;2024-02-26T00:14:37;100327.56;;;2.59;80.08
84841;BME280;75088;53.114;18.040;2024-02-26T00:15:44;100327.91;;;2.58;80.13
84841;BME280;75088;53.114;18.040;2024-02-26T00:16:51;100328.05;;;2.56;80.13
84841;BME280;75088;53.114;18.040;2024-02-26T00:17:58;100328.20;;;2.55;80.08
84841;BME280;75088;53.114;18.040;2024-02-26T00:19:05;100326.45;;;2.54;80.39
84841;BME280;75088;53.114;18.040;2024-02-26T00:20:13;100324.35;;;2.55;80.66
84841;BME280;75088;53.114;18.040;2024-02-26T00:21:20;100326.80;;;2.54;80.46
84841;BME280;75088;53.114;18.040;2024-02-26T00:22:28;100324.16;;;2.54;80.47
84841;BME280;75088;53.114;18.040;2024-02-26T00:23:35;100324.16;;;2.54;80.48
84841;BME280;75088;53.114;18.040;2024-02-26T00:24:42;100326.44;;;2.53;80.66
84841;BME280;75088;53.114;18.040;2024-02-26T00:25:49;100319.61;;;2.55;80.72
84841;BME280;75088;53.114;18.040;2024-02-26T00:26:56;100319.95;;;2.54;80.55
84841;BME280;75088;53.114;18.040;2024-02-26T00:28:04;100321.33;;;2.52;80.26
84841;BME280;75088;53.114;18.040;2024-02-26T00:29:11;100321.10;;;2.50;80.17
84841;BME280;75088;53.114;18.040;2024-02-26T00:30:18;100316.86;;;2.46;80.18
84841;BME280;75088;53.114;18.040;2024-02-26T00:31:25;100313.69;;;2.44;80.12
84841;BME280;75088;53.114;18.040;2024-02-26T00:32:32;100312.61;;;2.43;80.06
84841;BME280;75088;53.114;18.040;2024-02-26T00:33:39;100311.89;;;2.41;80.08
84841;BME280;75088;53.114;18.040;2024-02-26T00:34:47;100312.02;;;2.39;80.05
84841;BME280;75088;53.114;18.040;2024-02-26T00:35:54;100307.27;;;2.36;79.87
84841;BME280;75088;53.114;18.040;2024-02-26T00:37:01;100307.39;;;2.35;80.06
84841;BME280;75088;53.114;18.040;2024-02-26T00:38:08;100308.59;;;2.32;80.29
84841;BME280;75088;53.114;18.040;2024-02-26T00:39:15;100306.81;;;2.31;80.25
84841;BME280;75088;53.114;18.040;2024-02-26T00:40:23;100304.36;;;2.30;80.24
84841;BME280;75088;53.114;18.040;2024-02-26T00:41:30;100305.04;;;2.29;80.27
84841;BME280;75088;53.114;18.040;2024-02-26T00:42:37;100307.49;;;2.30;80.25
84841;BME280;75088;53.114;18.040;2024-02-26T00:43:44;100305.89;;;2.28;80.31
84841;BME280;75088;53.114;18.040;2024-02-26T00:44:51;100310.79;;;2.28;80.25
84841;BME280;75088;53.114;18.040;2024-02-26T00:45:58;100312.35;;;2.26;80.16
84841;BME280;75088;53.114;18.040;2024-02-26T00:47:06;100308.11;;;2.24;80.00
84841;BME280;75088;53.114;18.040;2024-02-26T00:48:13;100309.65;;;2.23;80.25
84841;BME280;75088;53.114;18.040;2024-02-26T00:49:20;100309.29;;;2.22;79.91
84841;BME280;75088;53.114;18.040;2024-02-26T00:50:27;100308.04;;;2.20;79.89
84841;BME280;75088;53.114;18.040;2024-02-26T00:51:34;100308.19;;;2.17;79.84
84841;BME280;75088;53.114;18.040;2024-02-26T00:52:41;100309.86;;;2.13;79.92
84841;BME280;75088;53.114;18.040;2024-02-26T00:53:48;100308.94;;;2.10;80.11
84841;BME280;75088;53.114;18.040;2024-02-26T00:54:55;100306.63;;;2.08;79.84
84841;BME280;75088;53.114;18.040;2024-02-26T00:56:02;100307.14;;;2.07;80.16
84841;BME280;75088;53.114;18.040;2024-02-26T00:57:09;100308.52;;;2.06;79.95
84841;BME280;75088;53.114;18.040;2024-02-26T00:58:17;100305.35;;;2.05;80.07
84841;BME280;75088;53.114;18.040;2024-02-26T00:59:24;100306.39;;;2.04;80.00
84841;BME280;75088;53.114;18.040;2024-02-26T01:00:31;100309.02;;;2.04;79.89
84841;BME280;75088;53.114;18.040;2024-02-26T01:01:39;100307.95;;;2.03;79.83
84841;BME280;75088;53.114;18.040;2024-02-26T01:02:46;100308.80;;;2.02;80.04
84841;BME280;75088;53.114;18.040;2024-02-26T01:03:53;100309.63;;;2.00;79.89
84841;BME280;75088;53.114;18.040;2024-02-26T01:05:00;100311.34;;;1.97;80.09
84841;BME280;75088;53.114;18.040;2024-02-26T01:06:07;100313.21;;;1.94;79.83
84841;BME280;75088;53.114;18.040;2024-02-26T01:07:14;100308.98;;;1.92;79.96
84841;BME280;75088;53.114;18.040;2024-02-26T01:08:21;100307.56;;;1.90;79.73
84841;BME280;75088;53.114;18.040;2024-02-26T01:09:28;100306.15;;;1.89;80.04
84841;BME280;75088;53.114;18.040;2024-02-26T01:10:35;100307.70;;;1.88;79.97
84841;BME280;75088;53.114;18.040;2024-02-26T01:11:42;100306.81;;;1.87;79.85
84841;BME280;75088;53.114;18.040;2024-02-26T01:12:49;100309.60;;;1.86;79.95
84841;BME280;75088;53.114;18.040;2024-02-26T01:13:56;100309.23;;;1.85;80.11
84841;BME280;75088;53.114;18.040;2024-02-26T01:15:05;100312.02;;;1.84;80.14
84841;BME280;75088;53.114;18.040;2024-02-26T01:16:13;100309.54;;;1.83;80.16
84841;BME280;75088;53.114;18.040;2024-02-26T01:17:20;100317.05;;;1.82;79.88
84841;BME280;75088;53.114;18.040;2024-02-26T01:18:27;100316.52;;;1.82;79.84
84841;BME280;75088;53.114;18.040;2024-02-26T01:19:34;100315.64;;;1.82;80.25
84841;BME280;75088;53.114;18.040;2024-02-26T01:20:42;100312.30;;;1.82;80.17
84841;BME280;75088;53.114;18.040;2024-02-26T01:21:49;100318.45;;;1.82;80.32
84841;BME280;75088;53.114;18.040;2024-02-26T01:22:56;100316.70;;;1.82;80.42
84841;BME280;75088;53.114;18.040;2024-02-26T01:24:03;100317.45;;;1.84;80.54
84841;BME280;75088;53.114;18.040;2024-02-26T01:25:11;100314.52;;;1.87;80.53
84841;BME280;75088;53.114;18.040;2024-02-26T01:26:18;100313.16;;;1.89;80.75
84841;BME280;75088;53.114;18.040;2024-02-26T01:27:27;100314.41;;;1.91;80.74
84841;BME280;75088;53.114;18.040;2024-02-26T01:28:34;100316.89;;;1.94;80.67
84841;BME280;75088;53.114;18.040;2024-02-26T01:29:41;100313.39;;;1.95;80.86
84841;BME280;75088;53.114;18.040;2024-02-26T01:30:48;100314.64;;;1.96;80.72
84841;BME280;75088;53.114;18.040;2024-02-26T01:31:55;100321.50;;;1.97;80.81
84841;BME280;75088;53.114;18.040;2024-02-26T01:33:02;100318.70;;;1.98;80.74
84841;BME280;75088;53.114;18.040;2024-02-26T01:34:10;100316.80;;;1.99;80.92
84841;BME280;75088;53.114;18.040;2024-02-26T01:35:17;100319.97;;;2.00;80.95
84841;BME280;75088;53.114;18.040;2024-02-26T01:36:25;100315.62;;;2.01;80.78
84841;BME280;75088;53.114;18.040;2024-02-26T01:37:32;100318.61;;;2.02;81.23
84841;BME280;75088;53.114;18.040;2024-02-26T01:38:39;100317.78;;;2.04;81.06
84841;BME280;75088;53.114;18.040;2024-02-26T01:39:46;100317.29;;;2.07;81.05
84841;BME280;75088;53.114;18.040;2024-02-26T01:40:54;100316.27;;;2.08;81.06
84841;BME280;75088;53.114;18.040;2024-02-26T01:42:01;100319.64;;;2.11;81.00
84841;BME280;75088;53.114;18.040;2024-02-26T01:43:08;100318.80;;;2.13;81.13
84841;BME280;75088;53.114;18.040;2024-02-26T01:44:15;100319.51;;;2.13;80.96
84841;BME280;75088;53.114;18.040;2024-02-26T01:45:22;100323.55;;;2.14;80.99
84841;BME280;75088;53.114;18.040;2024-02-26T01:46:31;100328.29;;;2.14;80.90
84841;BME280;75088;53.114;18.040;2024-02-26T01:47:39;100323.38;;;2.14;81.26
84841;BME280;75088;53.114;18.040;2024-02-26T01:48:47;100324.23;;;2.13;81.09
84841;BME280;75088;53.114;18.040;2024-02-26T01:49:55;100323.20;;;2.13;81.29
84841;BME280;75088;53.114;18.040;2024-02-26T01:51:03;100320.20;;;2.13;81.25
84841;BME280;75088;53.114;18.040;2024-02-26T01:52:11;100321.79;;;2.13;81.36
84841;BME280;75088;53.114;18.040;2024-02-26T01:53:19;100324.78;;;2.14;81.36
84841;BME280;75088;53.114;18.040;2024-02-26T01:54:26;100322.48;;;2.13;81.26
84841;BME280;75088;53.114;18.040;2024-02-26T01:55:35;100320.89;;;2.12;81.29
84841;BME280;75088;53.114;18.040;2024-02-26T01:56:42;100323.70;;;2.12;81.24
84841;BME280;75088;53.114;18.040;2024-02-26T01:57:50;100325.61;;;2.11;81.16
84841;BME280;75088;53.114;18.040;2024-02-26T01:58:58;100325.80;;;2.12;81.25
84841;BME280;75088;53.114;18.040;2024-02-26T02:00:08;100328.64;;;2.14;81.54
84841;BME280;75088;53.114;18.040;2024-02-26T02:01:17;100328.48;;;2.15;81.35
84841;BME280;75088;53.114;18.040;2024-02-26T02:02:25;100330.61;;;2.17;81.41
84841;BME280;75088;53.114;18.040;2024-02-26T02:03:33;100330.29;;;2.18;81.48
84841;BME280;75088;53.114;18.040;2024-02-26T02:04:41;100331.15;;;2.20;81.23
84841;BME280;75088;53.114;18.040;2024-02-26T02:05:48;100333.27;;;2.21;81.24
84841;BME280;75088;53.114;18.040;2024-02-26T02:06:55;100330.48;;;2.22;81.04
84841;BME280;75088;53.114;18.040;2024-02-26T02:08:05;100331.04;;;2.23;81.22
84841;BME280;75088;53.114;18.040;2024-02-26T02:09:12;100328.58;;;2.23;81.05
84841;BME280;75088;53.114;18.040;2024-02-26T02:10:19;100327.35;;;2.23;81.26
84841;BME280;75088;53.114;18.040;2024-02-26T02:11:30;100324.91;;;2.23;81.14
84841;BME280;75088;53.114;18.040;2024-02-26T02:12:39;100324.38;;;2.23;81.35
84841;BME280;75088;53.114;18.040;2024-02-26T02:13:46;100326.52;;;2.25;81.39
84841;BME280;75088;53.114;18.040;2024-02-26T02:14:53;100326.37;;;2.27;81.60
84841;BME280;75088;53.114;18.040;2024-02-26T02:16:00;100329.37;;;2.28;81.45
84841;BME280;75088;53.114;18.040;2024-02-26T02:17:08;100327.10;;;2.29;81.43
84841;BME280;75088;53.114;18.040;2024-02-26T02:18:15;100323.98;;;2.30;81.42
84841;BME280;75088;53.114;18.040;2024-02-26T02:19:22;100326.12;;;2.32;81.49
84841;BME280;75088;53.114;18.040;2024-02-26T02:20:33;100326.15;;;2.34;81.51
84841;BME280;75088;53.114;18.040;2024-02-26T02:21:40;100327.02;;;2.34;81.31
84841;BME280;75088;53.114;18.040;2024-02-26T02:22:47;100327.52;;;2.32;81.35
84841;BME280;75088;53.114;18.040;2024-02-26T02:23:54;100326.11;;;2.32;81.35
84841;BME280;75088;53.114;18.040;2024-02-26T02:25:01;100325.58;;;2.32;81.39
84841;BME280;75088;53.114;18.040;2024-02-26T02:26:09;100321.41;;;2.33;81.47
84841;BME280;75088;53.114;18.040;2024-02-26T02:27:17;100321.41;;;2.34;81.26
84841;BME280;75088;53.114;18.040;2024-02-26T02:28:25;100324.95;;;2.35;81.62
84841;BME280;75088;53.114;18.040;2024-02-26T02:29:32;100319.35;;;2.36;81.50
84841;BME280;75088;53.114;18.040;2024-02-26T02:30:40;100317.77;;;2.37;81.48
84841;BME280;75088;53.114;18.040;2024-02-26T02:31:47;100316.20;;;2.36;81.57
84841;BME280;75088;53.114;18.040;2024-02-26T02:32:54;100320.77;;;2.37;81.25
84841;BME280;75088;53.114;18.040;2024-02-26T02:34:02;100317.09;;;2.37;81.46
84841;BME280;75088;53.114;18.040;2024-02-26T02:35:09;100317.59;;;2.36;81.24
84841;BME280;75088;53.114;18.040;2024-02-26T02:36:16;100322.14;;;2.36;81.17
84841;BME280;75088;53.114;18.040;2024-02-26T02:37:24;100323.38;;;2.35;81.25
84841;BME280;75088;53.114;18.040;2024-02-26T02:38:31;100323.70;;;2.34;81.58
84841;BME280;75088;53.114;18.040;2024-02-26T02:39:39;100325.80;;;2.34;81.11
84841;BME280;75088;53.114;18.040;2024-02-26T02:40:49;100325.06;;;2.33;81.27
84841;BME280;75088;53.114;18.040;2024-02-26T02:41:56;100332.80;;;2.33;81.51
84841;BME280;75088;53.114;18.040;2024-02-26T02:43:03;100330.51;;;2.33;81.48
84841;BME280;75088;53.114;18.040;2024-02-26T02:44:10;100329.27;;;2.32;81.42
84841;BME280;75088;53.114;18.040;2024-02-26T02:45:17;100332.07;;;2.32;81.32
84841;BME280;75088;53.114;18.040;2024-02-26T02:46:24;100333.83;;;2.32;81.41
84841;BME280;75088;53.114;18.040;2024-02-26T02:47:31;100333.11;;;2.31;81.53
84841;BME280;75088;53.114;18.040;2024-02-26T02:48:38;100330.83;;;2.31;81.54
84841;BME280;75088;53.114;18.040;2024-02-26T02:49:45;100333.46;;;2.31;81.80
84841;BME280;75088;53.114;18.040;2024-02-26T02:50:52;100331.02;;;2.31;81.57
84841;BME280;75088;53.114;18.040;2024-02-26T02:51:59;100331.55;;;2.32;81.64
84841;BME280;75088;53.114;18.040;2024-02-26T02:53:07;100332.27;;;2.33;81.55
84841;BME280;75088;53.114;18.040;2024-02-26T02:54:14;100333.67;;;2.33;81.75
84841;BME280;75088;53.114;18.040;2024-02-26T02:55:21;100336.46;;;2.33;81.56
84841;BME280;75088;53.114;18.040;2024-02-26T02:56:28;100337.00;;;2.33;81.76
84841;BME280;75088;53.114;18.040;2024-02-26T02:57:35;100339.43;;;2.32;81.51
84841;BME280;75088;53.114;18.040;2024-02-26T02:58:46;100335.70;;;2.28;81.61
84841;BME280;75088;53.114;18.040;2024-02-26T02:59:53;100339.00;;;2.27;81.82
84841;BME280;75088;53.114;18.040;2024-02-26T03:01:00;100339.87;;;2.27;81.56
84841;BME280;75088;53.114;18.040;2024-02-26T03:02:07;100339.49;;;2.25;81.53
84841;BME280;75088;53.114;18.040;2024-02-26T03:03:15;100341.38;;;2.23;81.60
84841;BME280;75088;53.114;18.040;2024-02-26T03:04:22;100342.20;;;2.19;81.55
84841;BME280;75088;53.114;18.040;2024-02-26T03:05:29;100336.20;;;2.16;81.38
84841;BME280;75088;53.114;18.040;2024-02-26T03:06:36;100337.77;;;2.16;81.86
84841;BME280;75088;53.114;18.040;2024-02-26T03:07:43;100335.50;;;2.16;81.75
84841;BME280;75088;53.114;18.040;2024-02-26T03:08:50;100337.27;;;2.16;81.64
84841;BME280;75088;53.114;18.040;2024-02-26T03:09:58;100337.62;;;2.17;82.00
84841;BME280;75088;53.114;18.040;2024-02-26T03:11:05;100336.59;;;2.18;81.85
84841;BME280;75088;53.114;18.040;2024-02-26T03:12:12;100339.56;;;2.19;81.96
84841;BME280;75088;53.114;18.040;2024-02-26T03:13:19;100339.05;;;2.20;81.82
84841;BME280;75088;53.114;18.040;2024-02-26T03:14:26;100338.72;;;2.21;82.00
84841;BME280;75088;53.114;18.040;2024-02-26T03:15:34;100332.24;;;2.22;81.90
84841;BME280;75088;53.114;18.040;2024-02-26T03:16:41;100332.27;;;2.23;81.87
84841;BME280;75088;53.114;18.040;2024-02-26T03:17:48;100331.77;;;2.24;82.08
84841;BME280;75088;53.114;18.040;2024-02-26T03:18:55;100326.88;;;2.25;82.14
84841;BME280;75088;53.114;18.040;2024-02-26T03:20:03;100323.73;;;2.26;82.34
84841;BME280;75088;53.114;18.040;2024-02-26T03:21:11;100325.67;;;2.27;81.91
84841;BME280;75088;53.114;18.040;2024-02-26T03:22:18;100327.92;;;2.25;81.96
84841;BME280;75088;53.114;18.040;2024-02-26T03:23:25;100325.10;;;2.24;81.95
84841;BME280;75088;53.114;18.040;2024-02-26T03:24:32;100324.23;;;2.24;81.86
84841;BME280;75088;53.114;18.040;2024-02-26T03:25:41;100324.77;;;2.25;82.15
84841;BME280;75088;53.114;18.040;2024-02-26T03:26:48;100322.33;;;2.26;82.04
84841;BME280;75088;53.114;18.040;2024-02-26T03:27:55;100320.93;;;2.26;82.32
84841;BME280;75088;53.114;18.040;2024-02-26T03:29:02;100319.71;;;2.26;82.20
84841;BME280;75088;53.114;18.040;2024-02-26T03:30:10;100321.14;;;2.28;82.10
84841;BME280;75088;53.114;18.040;2024-02-26T03:31:17;100316.92;;;2.28;82.01
84841;BME280;75088;53.114;18.040;2024-02-26T03:32:25;100320.42;;;2.27;81.98
84841;BME280;75088;53.114;18.040;2024-02-26T03:33:32;100320.60;;;2.27;82.01
84841;BME280;75088;53.114;18.040;2024-02-26T03:34:39;100320.42;;;2.27;81.98
84841;BME280;75088;53.114;18.040;2024-02-26T03:35:46;100321.64;;;2.26;82.04
84841;BME280;75088;53.114;18.040;2024-02-26T03:36:53;100325.66;;;2.26;82.19
84841;BME280;75088;53.114;18.040;2024-02-26T03:38:01;100327.77;;;2.26;82.44
84841;BME280;75088;53.114;18.040;2024-02-26T03:39:08;100331.08;;;2.26;82.78
84841;BME280;75088;53.114;18.040;2024-02-26T03:40:16;100334.76;;;2.25;83.22
84841;BME280;75088;53.114;18.040;2024-02-26T03:41:24;100332.45;;;2.23;83.21
84841;BME280;75088;53.114;18.040;2024-02-26T03:42:32;100333.46;;;2.21;83.47
84841;BME280;75088;53.114;18.040;2024-02-26T03:43:39;100336.42;;;2.20;83.64
84841;BME280;75088;53.114;18.040;2024-02-26T03:44:46;100337.98;;;2.19;83.66
84841;BME280;75088;53.114;18.040;2024-02-26T03:45:53;100336.06;;;2.20;83.74
84841;BME280;75088;53.114;18.040;2024-02-26T03:47:00;100332.39;;;2.20;83.85
84841;BME280;75088;53.114;18.040;2024-02-26T03:48:08;100328.39;;;2.22;83.63
84841;BME280;75088;53.114;18.040;2024-02-26T03:49:15;100323.67;;;2.23;83.41
84841;BME280;75088;53.114;18.040;2024-02-26T03:50:22;100322.29;;;2.24;83.53
84841;BME280;75088;53.114;18.040;2024-02-26T03:51:29;100320.59;;;2.26;83.46
84841;BME280;75088;53.114;18.040;2024-02-26T03:52:37;100323.23;;;2.28;83.30
84841;BME280;75088;53.114;18.040;2024-02-26T03:53:44;100329.05;;;2.29;83.38
84841;BME280;75088;53.114;18.040;2024-02-26T03:54:51;100326.42;;;2.29;83.05
84841;BME280;75088;53.114;18.040;2024-02-26T03:55:58;100328.89;;;2.30;83.26
84841;BME280;75088;53.114;18.040;2024-02-26T03:57:09;100327.48;;;2.30;83.04
84841;BME280;75088;53.114;18.040;2024-02-26T03:58:16;100331.01;;;2.31;83.08
84841;BME280;75088;53.114;18.040;2024-02-26T03:59:23;100329.63;;;2.33;83.06
84841;BME280;75088;53.114;18.040;2024-02-26T04:00:31;100332.63;;;2.34;82.80
84841;BME280;75088;53.114;18.040;2024-02-26T04:01:38;100335.80;;;2.35;82.94
84841;BME280;75088;53.114;18.040;2024-02-26T04:02:46;100334.95;;;2.36;82.84
84841;BME280;75088;53.114;18.040;2024-02-26T04:03:53;100331.80;;;2.37;82.85
84841;BME280;75088;53.114;18.040;2024-02-26T04:05:00;100333.04;;;2.37;82.84
84841;BME280;75088;53.114;18.040;2024-02-26T04:06:09;100334.80;;;2.37;82.87
84841;BME280;75088;53.114;18.040;2024-02-26T04:07:17;100333.74;;;2.37;82.83
84841;BME280;75088;53.114;18.040;2024-02-26T04:08:24;100333.22;;;2.38;82.69
84841;BME280;75088;53.114;18.040;2024-02-26T04:09:32;100334.79;;;2.37;82.68
84841;BME280;75088;53.114;18.040;2024-02-26T04:10:39;100331.63;;;2.37;82.67
84841;BME280;75088;53.114;18.040;2024-02-26T04:11:46;100330.75;;;2.36;82.67
84841;BME280;75088;53.114;18.040;2024-02-26T04:12:53;100326.53;;;2.35;82.67
84841;BME280;75088;53.114;18.040;2024-02-26T04:14:00;100330.55;;;2.35;82.51
84841;BME280;75088;53.114;18.040;2024-02-26T04:15:10;100331.07;;;2.35;82.61
84841;BME280;75088;53.114;18.040;2024-02-26T04:16:17;100330.34;;;2.33;82.52
84841;BME280;75088;53.114;18.040;2024-02-26T04:17:24;100331.73;;;2.33;82.49
84841;BME280;75088;53.114;18.040;2024-02-26T04:18:31;100327.88;;;2.32;82.33
84841;BME280;75088;53.114;18.040;2024-02-26T04:19:38;100328.02;;;2.31;82.45
84841;BME280;75088;53.114;18.040;2024-02-26T04:20:45;100324.48;;;2.29;82.30
84841;BME280;75088;53.114;18.040;2024-02-26T04:21:53;100324.98;;;2.27;82.09
84841;BME280;75088;53.114;18.040;2024-02-26T04:22:59;100328.64;;;2.27;82.19
84841;BME280;75088;53.114;18.040;2024-02-26T04:24:07;100327.56;;;2.25;82.42
84841;BME280;75088;53.114;18.040;2024-02-26T04:25:14;100322.10;;;2.23;82.26
84841;BME280;75088;53.114;18.040;2024-02-26T04:26:21;100326.10;;;2.21;82.18
84841;BME280;75088;53.114;18.040;2024-02-26T04:27:28;100328.88;;;2.19;82.18
84841;BME280;75088;53.114;18.040;2024-02-26T04:28:35;100328.88;;;2.18;82.20
84841;BME280;75088;53.114;18.040;2024-02-26T04:29:42;100333.58;;;2.16;82.03
84841;BME280;75088;53.114;18.040;2024-02-26T04:30:50;100335.11;;;2.14;82.10
84841;BME280;75088;53.114;18.040;2024-02-26T04:31:57;100339.63;;;2.11;82.19
84841;BME280;75088;53.114;18.040;2024-02-26T04:33:04;100333.44;;;2.09;82.16
84841;BME280;75088;53.114;18.040;2024-02-26T04:34:11;100334.63;;;2.06;82.01
84841;BME280;75088;53.114;18.040;2024-02-26T04:35:18;100337.92;;;2.05;82.15
84841;BME280;75088;53.114;18.040;2024-02-26T04:36:25;100333.34;;;2.03;81.96
84841;BME280;75088;53.114;18.040;2024-02-26T04:37:32;100334.35;;;2.00;81.85
84841;BME280;75088;53.114;18.040;2024-02-26T04:38:39;100334.67;;;1.99;82.01
84841;BME280;75088;53.114;18.040;2024-02-26T04:39:46;100336.19;;;1.96;82.11
84841;BME280;75088;53.114;18.040;2024-02-26T04:40:53;100339.11;;;1.93;82.19
84841;BME280;75088;53.114;18.040;2024-02-26T04:42:01;100338.73;;;1.89;82.09
84841;BME280;75088;53.114;18.040;2024-02-26T04:43:09;100340.80;;;1.88;81.90
84841;BME280;75088;53.114;18.040;2024-02-26T04:44:16;100338.99;;;1.85;81.88
84841;BME280;75088;53.114;18.040;2024-02-26T04:45:24;100339.14;;;1.83;81.95
84841;BME280;75088;53.114;18.040;2024-02-26T04:46:31;100341.73;;;1.82;81.93
84841;BME280;75088;53.114;18.040;2024-02-26T04:47:38;100346.94;;;1.80;82.09
84841;BME280;75088;53.114;18.040;2024-02-26T04:48:45;100343.40;;;1.78;81.87
84841;BME280;75088;53.114;18.040;2024-02-26T04:49:52;100343.53;;;1.75;81.88
84841;BME280;75088;53.114;18.040;2024-02-26T04:50:59;100344.20;;;1.74;81.94
84841;BME280;75088;53.114;18.040;2024-02-26T04:52:07;100345.91;;;1.71;81.91
84841;BME280;75088;53.114;18.040;2024-02-26T04:53:14;100347.27;;;1.69;81.89
84841;BME280;75088;53.114;18.040;2024-02-26T04:54:22;100348.98;;;1.67;81.99
84841;BME280;75088;53.114;18.040;2024-02-26T04:55:29;100347.39;;;1.66;82.04
84841;BME280;75088;53.114;18.040;2024-02-26T04:56:36;100347.00;;;1.64;81.84
84841;BME280;75088;53.114;18.040;2024-02-26T04:57:43;100349.25;;;1.61;81.90
84841;BME280;75088;53.114;18.040;2024-02-26T04:58:50;100354.11;;;1.59;81.86
84841;BME280;75088;53.114;18.040;2024-02-26T04:59:57;100353.20;;;1.58;81.72
84841;BME280;75088;53.114;18.040;2024-02-26T05:01:04;100358.10;;;1.58;81.81
84841;BME280;75088;53.114;18.040;2024-02-26T05:02:12;100355.29;;;1.57;81.90
84841;BME280;75088;53.114;18.040;2024-02-26T05:03:19;100362.45;;;1.56;82.11
84841;BME280;75088;53.114;18.040;2024-02-26T05:04:26;100361.56;;;1.56;82.11
84841;BME280;75088;53.114;18.040;2024-02-26T05:05:33;100358.58;;;1.55;82.02
84841;BME280;75088;53.114;18.040;2024-02-26T05:06:40;100359.09;;;1.54;82.12
84841;BME280;75088;53.114;18.040;2024-02-26T05:07:48;100362.23;;;1.54;82.17
84841;BME280;75088;53.114;18.040;2024-02-26T05:08:55;100360.09;;;1.53;82.20
84841;BME280;75088;53.114;18.040;2024-02-26T05:10:03;100359.90;;;1.52;82.16
84841;BME280;75088;53.114;18.040;2024-02-26T05:11:11;100358.14;;;1.50;81.82
84841;BME280;75088;53.114;18.040;2024-02-26T05:12:18;100363.17;;;1.49;81.93
84841;BME280;75088;53.114;18.040;2024-02-26T05:13:25;100361.41;;;1.48;81.85
84841;BME280;75088;53.114;18.040;2024-02-26T05:14:32;100366.48;;;1.48;81.76
84841;BME280;75088;53.114;18.040;2024-02-26T05:15:40;100367.69;;;1.47;81.99
84841;BME280;75088;53.114;18.040;2024-02-26T05:16:47;100368.54;;;1.46;82.04
84841;BME280;75088;53.114;18.040;2024-02-26T05:17:54;100371.67;;;1.46;81.96
84841;BME280;75088;53.114;18.040;2024-02-26T05:19:01;100376.55;;;1.44;81.95
84841;BME280;75088;53.114;18.040;2024-02-26T05:20:10;100376.69;;;1.43;82.09
84841;BME280;75088;53.114;18.040;2024-02-26T05:21:17;100378.58;;;1.41;81.83
84841;BME280;75088;53.114;18.040;2024-02-26T05:22:24;100382.55;;;1.38;81.68
84841;BME280;75088;53.114;18.040;2024-02-26T05:23:31;100384.27;;;1.36;82.11
84841;BME280;75088;53.114;18.040;2024-02-26T05:24:40;100387.57;;;1.34;82.09
84841;BME280;75088;53.114;18.040;2024-02-26T05:25:48;100390.15;;;1.32;81.77
84841;BME280;75088;53.114;18.040;2024-02-26T05:26:55;100388.53;;;1.30;81.91
84841;BME280;75088;53.114;18.040;2024-02-26T05:28:02;100391.64;;;1.28;82.06
84841;BME280;75088;53.114;18.040;2024-02-26T05:29:10;100394.57;;;1.26;81.98
84841;BME280;75088;53.114;18.040;2024-02-26T05:30:18;100396.27;;;1.24;82.09
84841;BME280;75088;53.114;18.040;2024-02-26T05:31:25;100395.52;;;1.22;81.73
84841;BME280;75088;53.114;18.040;2024-02-26T05:32:32;100392.31;;;1.19;81.99
84841;BME280;75088;53.114;18.040;2024-02-26T05:33:39;100395.78;;;1.18;81.82
84841;BME280;75088;53.114;18.040;2024-02-26T05:34:46;100393.98;;;1.16;81.98
84841;BME280;75088;53.114;18.040;2024-02-26T05:35:53;100394.31;;;1.15;81.87
84841;BME280;75088;53.114;18.040;2024-02-26T05:37:00;100395.14;;;1.13;82.11
84841;BME280;75088;53.114;18.040;2024-02-26T05:38:07;100396.70;;;1.12;81.89
84841;BME280;75088;53.114;18.040;2024-02-26T05:39:14;100394.92;;;1.11;82.18
84841;BME280;75088;53.114;18.040;2024-02-26T05:40:21;100397.55;;;1.11;82.15
84841;BME280;75088;53.114;18.040;2024-02-26T05:41:29;100398.41;;;1.10;82.08
84841;BME280;75088;53.114;18.040;2024-02-26T05:42:36;100400.70;;;1.11;82.20
84841;BME280;75088;53.114;18.040;2024-02-26T05:43:43;100397.88;;;1.09;82.07
84841;BME280;75088;53.114;18.040;2024-02-26T05:44:50;100403.80;;;1.08;82.31
84841;BME280;75088;53.114;18.040;2024-02-26T05:45:57;100400.98;;;1.07;82.05
84841;BME280;75088;53.114;18.040;2024-02-26T05:47:05;100401.47;;;1.05;82.13
84841;BME280;75088;53.114;18.040;2024-02-26T05:48:12;100400.23;;;1.05;82.20
84841;BME280;75088;53.114;18.040;2024-02-26T05:49:19;100401.80;;;1.05;81.72
84841;BME280;75088;53.114;18.040;2024-02-26T05:50:27;100404.39;;;1.03;82.10
84841;BME280;75088;53.114;18.040;2024-02-26T05:51:34;100408.75;;;1.03;82.16
84841;BME280;75088;53.114;18.040;2024-02-26T05:52:41;100412.61;;;1.03;82.22